Time;durP1;ratioP1;P1;durP2;ratioP2;P2;SDS_P1;SDS_P2;PMS_P1;PMS_P2;Temp;Humidity;BMP_temperature;BMP_pressure;BME280_temperature;BME280_humidity;BME280_pressure;Samples;Min_cycle;Max_cycle;Signal;HPM_P1;HPM_P2
2024/03/15 00:00:18;;;;;;;;;;;;;;;6.89;68.12;94599.31;4209642;28;20406;-72
2024/03/15 00:02:20;;;;;;;;;;;;;;;7.01;67.74;94601.75;4200954;28;19920;-69
2024/03/15 00:04:22;;;;;;;;;;;;;;;7.05;68.18;94595.31;4201270;28;19979;-71
2024/03/15 00:06:26;;;;;;;;;;;;;;;7.05;67.93;94598.72;4208511;28;19984;-72
2024/03/15 00:08:28;;;;;;;;;;;;;;;7.11;68.21;94598.16;4191096;28;19921;-69
2024/03/15 00:10:29;;;;;;;;;;;;;;;7.06;67.81;94602.19;4202033;28;19989;-70
2024/03/15 00:12:33;;;;;;;;;;;;;;;7.05;68.12;94605.72;4209072;28;20392;-72
2024/03/15 00:14:37;;;;;;;;;;;;;;;7.08;68.05;94595.03;4206595;28;20126;-69
2024/03/15 00:16:39;;;;;;;;;;;;;;;7.15;68.08;94594.31;4209242;28;20406;-69
2024/03/15 00:18:41;;;;;;;;;;;;;;;7.20;68.00;94587.88;4211849;28;19923;-70
2024/03/15 00:20:43;;;;;;;;;;;;;;;7.28;67.55;94596.63;4206655;28;19927;-71
2024/03/15 00:22:44;;;;;;;;;;;;;;;7.36;67.04;94585.50;4212336;28;19989;-67
2024/03/15 00:24:47;;;;;;;;;;;;;;;7.41;67.34;94585.06;4203447;28;19962;-69
2024/03/15 00:26:49;;;;;;;;;;;;;;;7.37;66.81;94587.94;4205090;28;19959;-70
2024/03/15 00:28:51;;;;;;;;;;;;;;;7.41;66.97;94587.69;4199997;28;19924;-70
2024/03/15 00:30:52;;;;;;;;;;;;;;;7.45;66.78;94586.44;4204484;28;19957;-71
2024/03/15 00:32:54;;;;;;;;;;;;;;;7.51;66.57;94585.88;4210577;28;20397;-71
2024/03/15 00:34:56;;;;;;;;;;;;;;;7.50;66.82;94586.81;4202155;28;20034;-71
2024/03/15 00:37:03;;;;;;;;;;;;;;;7.61;66.65;94591.84;4208429;28;20328;-68
2024/03/15 00:39:05;;;;;;;;;;;;;;;7.71;66.09;94581.38;4211768;28;19942;-70
2024/03/15 00:41:07;;;;;;;;;;;;;;;7.80;65.74;94583.13;4211154;28;20358;-69
2024/03/15 00:43:08;;;;;;;;;;;;;;;7.90;66.23;94593.53;4208955;28;19975;-70
2024/03/15 00:45:10;;;;;;;;;;;;;;;7.95;65.34;94588.69;4211528;28;20361;-67
2024/03/15 00:47:12;;;;;;;;;;;;;;;7.99;65.91;94582.19;4209438;28;19928;-70
2024/03/15 00:49:14;;;;;;;;;;;;;;;7.99;65.34;94580.41;4208537;28;19933;-68
2024/03/15 00:51:16;;;;;;;;;;;;;;;7.93;64.93;94588.81;4210462;28;20365;-69
2024/03/15 00:53:17;;;;;;;;;;;;;;;7.90;66.12;94583.09;4200049;28;19920;-70
2024/03/15 00:55:19;;;;;;;;;;;;;;;7.92;66.05;94584.56;4193858;28;19962;-69
2024/03/15 00:57:21;;;;;;;;;;;;;;;7.86;65.61;94582.53;4200185;28;19936;-68
2024/03/15 00:59:23;;;;;;;;;;;;;;;7.85;65.29;94582.69;4201339;28;19920;-70
2024/03/15 01:01:25;;;;;;;;;;;;;;;7.88;66.13;94569.38;4201839;28;19924;-70
2024/03/15 01:03:27;;;;;;;;;;;;;;;7.86;65.87;94579.94;4206102;28;19922;-70
2024/03/15 01:05:29;;;;;;;;;;;;;;;7.86;65.93;94581.72;4212007;28;19920;-70
2024/03/15 01:07:31;;;;;;;;;;;;;;;7.89;66.47;94582.25;4205877;28;20131;-70
2024/03/15 01:09:33;;;;;;;;;;;;;;;7.94;66.17;94576.63;4211010;28;20422;-69
2024/03/15 01:11:35;;;;;;;;;;;;;;;7.90;65.58;94570.84;4207475;28;19920;-69
2024/03/15 01:13:37;;;;;;;;;;;;;;;7.85;66.04;94562.66;4195696;28;19928;-70
2024/03/15 01:15:38;;;;;;;;;;;;;;;7.90;65.56;94570.03;4196978;28;19989;-70
2024/03/15 01:17:40;;;;;;;;;;;;;;;7.88;65.16;94569.38;4191034;28;19943;-69
2024/03/15 01:19:45;;;;;;;;;;;;;;;7.89;66.05;94571.00;4187244;28;20406;-71
2024/03/15 01:21:47;;;;;;;;;;;;;;;7.93;65.47;94567.13;4197136;28;19962;-68
2024/03/15 01:23:49;;;;;;;;;;;;;;;7.94;66.27;94569.59;4197823;28;19974;-71
2024/03/15 01:25:50;;;;;;;;;;;;;;;7.92;65.32;94568.13;4210671;28;20418;-69
2024/03/15 01:27:53;;;;;;;;;;;;;;;7.87;66.04;94567.72;4203474;28;19973;-71
2024/03/15 01:29:54;;;;;;;;;;;;;;;7.86;66.42;94566.09;4206880;28;19927;-71
2024/03/15 01:31:56;;;;;;;;;;;;;;;7.83;66.04;94569.81;4204994;28;19931;-72
2024/03/15 01:33:58;;;;;;;;;;;;;;;7.83;66.23;94574.19;4211716;28;20007;-70
2024/03/15 01:36:00;;;;;;;;;;;;;;;7.88;66.23;94578.00;4209171;28;19928;-68
2024/03/15 01:38:03;;;;;;;;;;;;;;;7.88;65.91;94567.56;4183113;28;19962;-68
2024/03/15 01:40:08;;;;;;;;;;;;;;;7.87;65.88;94576.38;4197832;28;19931;-70
2024/03/15 01:42:10;;;;;;;;;;;;;;;7.90;66.71;94567.44;4202165;28;19936;-70
2024/03/15 01:44:13;;;;;;;;;;;;;;;7.94;66.33;94569.59;4208877;28;19993;-69
2024/03/15 01:46:16;;;;;;;;;;;;;;;7.85;66.31;94565.28;4203220;28;19947;-69
2024/03/15 01:48:18;;;;;;;;;;;;;;;7.80;66.01;94575.28;4200642;28;19920;-70
2024/03/15 01:50:23;;;;;;;;;;;;;;;7.79;66.18;94565.84;4190955;28;19920;-68
2024/03/15 01:52:25;;;;;;;;;;;;;;;7.66;67.12;94566.19;4187562;28;19931;-69
2024/03/15 01:54:28;;;;;;;;;;;;;;;7.67;67.56;94562.59;4202290;28;20015;-69
2024/03/15 01:56:30;;;;;;;;;;;;;;;7.70;67.18;94564.94;4197248;28;19956;-68
2024/03/15 01:58:32;;;;;;;;;;;;;;;7.70;67.34;94564.94;4203240;28;19935;-72
2024/03/15 02:00:36;;;;;;;;;;;;;;;7.73;67.28;94562.03;4206339;28;19920;-69
2024/03/15 02:02:38;;;;;;;;;;;;;;;7.71;67.34;94565.75;4205019;28;19970;-71
2024/03/15 02:04:40;;;;;;;;;;;;;;;7.62;67.64;94562.22;4203051;28;20047;-70
2024/03/15 02:06:42;;;;;;;;;;;;;;;7.36;68.03;94562.88;4204089;28;20270;-69
2024/03/15 02:08:43;;;;;;;;;;;;;;;7.29;68.87;94567.00;4209345;28;20382;-70
2024/03/15 02:10:45;;;;;;;;;;;;;;;6.91;69.65;94568.75;4189593;28;19987;-69
2024/03/15 02:12:49;;;;;;;;;;;;;;;6.90;70.32;94564.47;4203792;28;19952;-68
2024/03/15 02:14:52;;;;;;;;;;;;;;;6.87;70.63;94567.38;4205127;28;19928;-71
2024/03/15 02:16:53;;;;;;;;;;;;;;;6.97;70.35;94567.38;4207866;28;20317;-70
2024/03/15 02:18:55;;;;;;;;;;;;;;;6.87;70.65;94563.97;4210582;28;20476;-70
2024/03/15 02:20:57;;;;;;;;;;;;;;;6.88;71.05;94565.59;4207062;28;19931;-70
2024/03/15 02:22:59;;;;;;;;;;;;;;;6.87;70.21;94567.38;4209182;28;20034;-71
2024/03/15 02:25:00;;;;;;;;;;;;;;;6.95;70.77;94566.69;4205933;28;19931;-69
2024/03/15 02:27:03;;;;;;;;;;;;;;;6.99;70.21;94568.06;4202019;28;19928;-70
2024/03/15 02:29:05;;;;;;;;;;;;;;;7.09;69.98;94560.19;4208203;28;20046;-67
2024/03/15 02:31:10;;;;;;;;;;;;;;;7.11;69.42;94568.69;4203923;28;19938;-70
2024/03/15 02:33:12;;;;;;;;;;;;;;;7.22;69.55;94571.13;4178599;28;19929;-69
2024/03/15 02:35:15;;;;;;;;;;;;;;;7.31;69.12;94575.50;4181857;28;19932;-70
2024/03/15 02:37:28;;;;;;;;;;;;;;;7.34;68.62;94563.97;4203988;28;19924;-69
2024/03/15 02:39:30;;;;;;;;;;;;;;;7.39;68.74;94565.19;4206676;28;19985;-70
2024/03/15 02:41:32;;;;;;;;;;;;;;;7.39;68.26;94565.19;4196451;28;20066;-69
2024/03/15 02:43:33;;;;;;;;;;;;;;;7.41;67.52;94561.63;4204445;28;20403;-70
2024/03/15 02:45:35;;;;;;;;;;;;;;;7.44;67.85;94563.94;4192692;28;19928;-70
2024/03/15 02:47:38;;;;;;;;;;;;;;;7.29;68.23;94563.56;4204391;28;19940;-70
2024/03/15 02:49:40;;;;;;;;;;;;;;;7.23;68.52;94564.13;4207159;28;19947;-70
2024/03/15 02:51:42;;;;;;;;;;;;;;;7.17;68.62;94560.31;4208458;28;19928;-68
2024/03/15 02:53:44;;;;;;;;;;;;;;;7.20;68.69;94557.41;4210955;28;19920;-70
2024/03/15 02:55:45;;;;;;;;;;;;;;;7.26;68.39;94561.25;4212159;28;19999;-71
2024/03/15 02:57:47;;;;;;;;;;;;;;;7.31;67.99;94559.03;4204168;28;20363;-70
2024/03/15 02:59:49;;;;;;;;;;;;;;;7.38;68.40;94560.94;4200811;28;20372;-71
2024/03/15 03:01:51;;;;;;;;;;;;;;;7.37;67.74;94553.25;4211352;28;19920;-70
2024/03/15 03:03:53;;;;;;;;;;;;;;;7.40;67.84;94555.59;4209227;28;19934;-70
2024/03/15 03:05:57;;;;;;;;;;;;;;;7.39;67.99;94557.34;4202614;28;20144;-71
2024/03/15 03:07:59;;;;;;;;;;;;;;;7.40;68.04;94553.00;4196368;28;19970;-70
2024/03/15 03:10:01;;;;;;;;;;;;;;;7.43;67.78;94552.69;4203205;28;20435;-71
2024/03/15 03:12:03;;;;;;;;;;;;;;;7.47;67.69;94554.03;4195063;28;19928;-70
2024/03/15 03:14:05;;;;;;;;;;;;;;;7.45;67.93;94558.56;4195784;28;20324;-70
2024/03/15 03:16:06;;;;;;;;;;;;;;;7.45;68.08;94558.56;4194246;28;19928;-69
2024/03/15 03:18:08;;;;;;;;;;;;;;;7.46;67.61;94562.81;4194447;28;20019;-70
2024/03/15 03:20:18;;;;;;;;;;;;;;;7.45;67.69;94561.19;4206749;28;19927;-70
2024/03/15 03:22:20;;;;;;;;;;;;;;;7.43;68.52;94557.09;4206667;28;19926;-70
2024/03/15 03:24:22;;;;;;;;;;;;;;;7.40;68.68;94568.63;4212962;28;20099;-71
2024/03/15 03:26:24;;;;;;;;;;;;;;;7.42;68.12;94571.06;4202779;28;19920;-69
2024/03/15 03:28:26;;;;;;;;;;;;;;;7.41;67.83;94566.84;4206071;28;21233;-72
2024/03/15 03:30:27;;;;;;;;;;;;;;;7.42;68.53;94571.91;4208676;28;20319;-70
2024/03/15 03:32:29;;;;;;;;;;;;;;;7.40;68.83;94571.22;4205536;28;19924;-71
2024/03/15 03:34:31;;;;;;;;;;;;;;;7.41;68.43;94572.03;4199494;28;20014;-71
2024/03/15 03:36:36;;;;;;;;;;;;;;;7.34;68.04;94574.41;4178129;28;20337;-69
2024/03/15 03:38:39;;;;;;;;;;;;;;;7.29;69.05;94577.44;4183074;28;19921;-70
2024/03/15 03:40:41;;;;;;;;;;;;;;;7.27;69.22;94576.75;4195513;28;19932;-70
2024/03/15 03:42:46;;;;;;;;;;;;;;;7.28;69.37;94569.75;4195247;28;19938;-69
2024/03/15 03:44:49;;;;;;;;;;;;;;;7.24;69.00;94573.59;4203578;28;20057;-69
2024/03/15 03:46:50;;;;;;;;;;;;;;;7.20;69.56;94574.84;4207071;28;20051;-69
2024/03/15 03:48:52;;;;;;;;;;;;;;;7.16;69.27;94567.31;4212941;28;19927;-70
2024/03/15 03:50:54;;;;;;;;;;;;;;;7.17;70.24;94570.75;4207165;28;19979;-70
2024/03/15 03:52:55;;;;;;;;;;;;;;;7.17;69.64;94575.97;4203889;28;19920;-70
2024/03/15 03:54:57;;;;;;;;;;;;;;;7.14;69.65;94573.63;4202093;28;19970;-71
2024/03/15 03:57:00;;;;;;;;;;;;;;;7.10;70.41;94572.28;4202348;28;20279;-71
2024/03/15 03:59:02;;;;;;;;;;;;;;;7.08;70.33;94569.81;4196386;28;19977;-71
2024/03/15 04:01:06;;;;;;;;;;;;;;;7.11;70.25;94577.31;4198579;28;20388;-70
2024/03/15 04:03:09;;;;;;;;;;;;;;;7.11;70.46;94579.94;4196734;28;20375;-70
2024/03/15 04:05:13;;;;;;;;;;;;;;;7.03;70.61;94581.59;4197998;28;19975;-71
2024/03/15 04:07:14;;;;;;;;;;;;;;;6.70;71.39;94592.31;4211691;28;19951;-70
2024/03/15 04:09:18;;;;;;;;;;;;;;;6.54;72.46;94590.28;4199548;28;20006;-70
2024/03/15 04:11:20;;;;;;;;;;;;;;;6.30;72.45;94590.69;4192796;28;20441;-71
2024/03/15 04:13:22;;;;;;;;;;;;;;;6.00;72.71;94589.00;4205913;28;19981;-71
2024/03/15 04:15:24;;;;;;;;;;;;;;;5.82;73.11;94601.78;4200573;28;19924;-71
2024/03/15 04:17:31;;;;;;;;;;;;;;;5.65;73.70;94602.41;4204855;28;20351;-71
2024/03/15 04:19:33;;;;;;;;;;;;;;;5.53;74.14;94597.31;4210613;28;20186;-70
2024/03/15 04:21:35;;;;;;;;;;;;;;;5.49;73.82;94605.50;4199541;28;19939;-71
2024/03/15 04:23:37;;;;;;;;;;;;;;;5.46;73.93;94605.75;4212609;28;19981;-72
2024/03/15 04:25:40;;;;;;;;;;;;;;;5.46;74.55;94601.41;4211194;28;20338;-71
2024/03/15 04:27:41;;;;;;;;;;;;;;;5.59;74.35;94602.94;4210651;28;19923;-71
2024/03/15 04:29:43;;;;;;;;;;;;;;;5.71;73.78;94607.09;4194727;28;19924;-70
2024/03/15 04:31:45;;;;;;;;;;;;;;;5.82;73.75;94608.75;4203834;28;20065;-70
2024/03/15 04:33:49;;;;;;;;;;;;;;;5.97;73.06;94602.25;4193780;28;19930;-69
2024/03/15 04:35:51;;;;;;;;;;;;;;;6.12;73.04;94603.53;4209909;28;20438;-71
2024/03/15 04:37:53;;;;;;;;;;;;;;;6.35;74.51;94604.09;4211792;28;19963;-71
2024/03/15 04:39:55;;;;;;;;;;;;;;;6.43;72.53;94611.25;4209258;28;20274;-70
2024/03/15 04:41:57;;;;;;;;;;;;;;;6.48;71.40;94609.06;4210539;28;19970;-69
2024/03/15 04:43:59;;;;;;;;;;;;;;;6.55;71.24;94615.34;4199498;28;19925;-71
2024/03/15 04:46:00;;;;;;;;;;;;;;;6.61;70.67;94602.75;4210376;28;20396;-70
2024/03/15 04:48:03;;;;;;;;;;;;;;;6.66;69.93;94595.34;4216113;28;20034;-71
2024/03/15 04:50:05;;;;;;;;;;;;;;;6.68;69.74;94603.84;4208163;28;20008;-70
2024/03/15 04:52:07;;;;;;;;;;;;;;;6.70;69.21;94599.31;4201771;28;19925;-69
2024/03/15 04:54:09;;;;;;;;;;;;;;;6.69;69.16;94602.88;4208733;28;19919;-71
2024/03/15 04:56:11;;;;;;;;;;;;;;;6.73;69.34;94597.28;4211696;28;19927;-71
2024/03/15 04:58:12;;;;;;;;;;;;;;;6.74;68.41;94603.31;4190831;28;20369;-71
2024/03/15 05:00:23;;;;;;;;;;;;;;;6.74;68.68;94604.13;4204084;28;19978;-70
2024/03/15 05:02:25;;;;;;;;;;;;;;;6.82;68.77;94600.00;4209348;28;19924;-72
2024/03/15 05:04:27;;;;;;;;;;;;;;;6.85;68.62;94597.94;4212375;28;19977;-71
2024/03/15 05:06:29;;;;;;;;;;;;;;;6.87;68.63;94601.22;4208666;28;19920;-73
2024/03/15 05:08:32;;;;;;;;;;;;;;;6.92;68.45;94595.59;4208269;28;19931;-69
2024/03/15 05:10:34;;;;;;;;;;;;;;;6.94;68.59;94602.31;4200243;28;19985;-68
2024/03/15 05:12:36;;;;;;;;;;;;;;;6.95;68.38;94606.56;4201546;28;19924;-72
2024/03/15 05:14:38;;;;;;;;;;;;;;;6.97;68.48;94607.25;4204018;28;19927;-70
2024/03/15 05:16:40;;;;;;;;;;;;;;;6.86;68.13;94614.38;4198337;28;19920;-71
2024/03/15 05:18:41;;;;;;;;;;;;;;;6.81;68.81;94609.59;4203622;28;19926;-71
2024/03/15 05:20:43;;;;;;;;;;;;;;;6.83;69.27;94615.47;4188145;28;20322;-70
2024/03/15 05:22:45;;;;;;;;;;;;;;;6.90;69.07;94618.34;4192638;28;20245;-71
2024/03/15 05:24:48;;;;;;;;;;;;;;;6.97;69.17;94614.25;4209726;28;19928;-73
2024/03/15 05:26:49;;;;;;;;;;;;;;;7.07;68.64;94614.22;4211081;28;20311;-72
2024/03/15 05:28:51;;;;;;;;;;;;;;;7.08;68.03;94616.69;4219693;28;20320;-75
2024/03/15 05:30:53;;;;;;;;;;;;;;;7.12;68.31;94614.63;4222619;28;20332;-71
2024/03/15 05:32:54;;;;;;;;;;;;;;;7.13;68.55;94613.66;4200171;28;20342;-72
2024/03/15 05:34:56;;;;;;;;;;;;;;;7.13;68.27;94618.88;4218043;28;19936;-71
2024/03/15 05:36:58;;;;;;;;;;;;;;;7.14;68.36;94621.34;4208413;28;19981;-69
2024/03/15 05:39:00;;;;;;;;;;;;;;;7.20;68.84;94626.94;4211369;28;19969;-69
2024/03/15 05:41:03;;;;;;;;;;;;;;;7.25;68.54;94622.13;4204609;28;19927;-69
2024/03/15 05:43:05;;;;;;;;;;;;;;;7.31;68.30;94622.41;4203051;28;19955;-70
2024/03/15 05:45:07;;;;;;;;;;;;;;;7.31;68.10;94619.81;4206015;28;20040;-72
2024/03/15 05:47:09;;;;;;;;;;;;;;;7.35;68.52;94625.53;4206432;28;19928;-71
2024/03/15 05:49:12;;;;;;;;;;;;;;;7.36;68.72;94622.00;4207226;28;20523;-69
2024/03/15 05:51:14;;;;;;;;;;;;;;;7.35;68.40;94622.94;4183326;28;20004;-71
2024/03/15 05:53:16;;;;;;;;;;;;;;;7.38;68.74;94625.28;4204933;28;20069;-67
2024/03/15 05:55:18;;;;;;;;;;;;;;;7.41;68.49;94626.78;4193409;28;20011;-71
2024/03/15 05:57:20;;;;;;;;;;;;;;;7.43;68.20;94625.66;4209300;28;20353;-70
2024/03/15 05:59:22;;;;;;;;;;;;;;;7.48;68.21;94628.66;4205947;28;19963;-71
2024/03/15 06:01:24;;;;;;;;;;;;;;;7.50;68.01;94620.69;4202050;28;19975;-70
2024/03/15 06:03:25;;;;;;;;;;;;;;;7.49;68.11;94621.69;4203403;28;20003;-70
2024/03/15 06:05:27;;;;;;;;;;;;;;;7.49;67.72;94622.50;4207151;28;19919;-71
2024/03/15 06:07:29;;;;;;;;;;;;;;;7.48;68.09;94627.84;4200831;28;20378;-72
2024/03/15 06:09:30;;;;;;;;;;;;;;;7.48;67.97;94626.06;4199469;28;19924;-73
2024/03/15 06:11:32;;;;;;;;;;;;;;;7.46;67.60;94634.97;4210239;28;19951;-70
2024/03/15 06:13:35;;;;;;;;;;;;;;;7.51;67.50;94627.56;4201398;28;20438;-70
2024/03/15 06:15:38;;;;;;;;;;;;;;;7.57;67.57;94624.38;4209227;28;19920;-69
2024/03/15 06:17:41;;;;;;;;;;;;;;;7.62;66.83;94630.00;4200755;28;19930;-72
2024/03/15 06:19:43;;;;;;;;;;;;;;;7.69;67.69;94628.47;4207216;28;20152;-71
2024/03/15 06:21:48;;;;;;;;;;;;;;;7.71;67.26;94630.94;4212996;28;19931;-71
2024/03/15 06:23:51;;;;;;;;;;;;;;;7.70;67.23;94630.13;4208993;28;19969;-70
2024/03/15 06:25:53;;;;;;;;;;;;;;;7.78;67.25;94630.19;4211763;28;19954;-70
2024/03/15 06:27:55;;;;;;;;;;;;;;;7.87;67.22;94630.31;4205993;28;20363;-71
2024/03/15 06:29:57;;;;;;;;;;;;;;;7.86;65.85;94632.09;4211501;28;20010;-71
2024/03/15 06:31:59;;;;;;;;;;;;;;;7.84;66.20;94630.59;4210402;28;19920;-71
2024/03/15 06:34:07;;;;;;;;;;;;;;;7.94;66.35;94639.22;4200191;28;19928;-72
2024/03/15 06:36:16;;;;;;;;;;;;;;;7.94;65.91;94636.59;4198645;28;20016;-69
2024/03/15 06:38:28;;;;;;;;;;;;;;;7.78;66.23;94632.81;4196590;28;19921;-73
2024/03/15 06:40:42;;;;;;;;;;;;;;;7.78;66.37;94630.19;4206950;28;20366;-70
2024/03/15 06:45:23;;;;;;;;;;;;;;;7.97;66.66;94634.50;4189571;28;19956;-73
2024/03/15 06:47:28;;;;;;;;;;;;;;;8.08;66.13;94630.06;4203891;28;19924;-72
2024/03/15 06:49:54;;;;;;;;;;;;;;;8.02;65.31;94623.63;4204996;28;19977;-72
2024/03/15 06:54:16;;;;;;;;;;;;;;;7.97;66.20;94629.28;4208440;28;19920;-72
2024/03/15 06:56:20;;;;;;;;;;;;;;;7.94;66.59;94628.78;4209911;28;19924;-70
2024/03/15 06:58:22;;;;;;;;;;;;;;;7.80;67.00;94628.28;4206380;28;19963;-72
2024/03/15 07:00:29;;;;;;;;;;;;;;;7.84;66.85;94633.22;4205911;28;19928;-71
2024/03/15 07:02:31;;;;;;;;;;;;;;;7.84;66.55;94628.81;4202280;28;19924;-71
2024/03/15 07:04:32;;;;;;;;;;;;;;;7.91;67.67;94626.44;4212774;28;20331;-72
2024/03/15 07:06:35;;;;;;;;;;;;;;;8.07;67.34;94629.25;4208094;28;20324;-70
2024/03/15 07:08:37;;;;;;;;;;;;;;;8.18;66.55;94625.63;4215380;28;19920;-72
2024/03/15 07:10:39;;;;;;;;;;;;;;;8.23;66.02;94623.41;4207656;28;20410;-70
2024/03/15 07:12:41;;;;;;;;;;;;;;;8.26;66.29;94620.50;4210246;28;19924;-72
2024/03/15 07:14:44;;;;;;;;;;;;;;;8.30;65.84;94628.84;4193684;28;19925;-71
2024/03/15 07:16:50;;;;;;;;;;;;;;;8.39;65.59;94623.56;4196963;28;19920;-72
2024/03/15 07:18:52;;;;;;;;;;;;;;;8.37;65.88;94625.50;4205976;28;19920;-71
2024/03/15 07:20:56;;;;;;;;;;;;;;;8.43;65.17;94634.56;4207816;28;19920;-72
2024/03/15 07:22:58;;;;;;;;;;;;;;;8.51;64.99;94624.19;4208253;28;20378;-70
2024/03/15 07:25:04;;;;;;;;;;;;;;;8.57;64.93;94625.41;4204878;28;19993;-70
2024/03/15 07:27:07;;;;;;;;;;;;;;;8.47;64.34;94628.06;4194976;28;20059;-73
2024/03/15 07:29:09;;;;;;;;;;;;;;;8.12;65.39;94634.84;4210656;28;19920;-71
2024/03/15 07:31:11;;;;;;;;;;;;;;;8.04;66.09;94634.75;4197634;28;20011;-72
2024/03/15 07:33:13;;;;;;;;;;;;;;;8.09;66.27;94629.94;4203403;28;20030;-72
2024/03/15 07:35:15;;;;;;;;;;;;;;;8.09;65.43;94629.94;4205044;28;19924;-72
2024/03/15 07:37:17;;;;;;;;;;;;;;;8.16;66.55;94632.78;4208145;28;20011;-71
2024/03/15 07:39:19;;;;;;;;;;;;;;;8.31;65.45;94630.50;4200095;28;20378;-70
2024/03/15 07:41:27;;;;;;;;;;;;;;;8.20;65.79;94631.53;4203050;28;19920;-70
2024/03/15 07:43:30;;;;;;;;;;;;;;;8.21;65.79;94633.16;4196086;28;19924;-70
2024/03/15 07:45:32;;;;;;;;;;;;;;;8.27;65.43;94629.97;4204815;28;19927;-71
2024/03/15 07:47:34;;;;;;;;;;;;;;;8.16;64.81;94635.38;4198736;28;19920;-69
2024/03/15 07:49:37;;;;;;;;;;;;;;;7.97;66.23;94641.53;4203117;28;19932;-71
2024/03/15 07:51:39;;;;;;;;;;;;;;;7.93;66.12;94643.59;4199332;28;20007;-71
2024/03/15 07:53:41;;;;;;;;;;;;;;;7.95;66.27;94641.66;4197765;28;19958;-70
2024/03/15 07:55:43;;;;;;;;;;;;;;;7.93;66.35;94645.38;4203173;28;20005;-71
2024/03/15 07:57:48;;;;;;;;;;;;;;;7.98;66.11;94645.78;4185913;28;19948;-71
2024/03/15 07:59:49;;;;;;;;;;;;;;;7.93;65.86;94646.19;4206432;28;19962;-71
2024/03/15 08:01:53;;;;;;;;;;;;;;;7.52;67.10;94648.25;4178223;28;19920;-72
2024/03/15 08:03:55;;;;;;;;;;;;;;;7.52;67.15;94650.06;4209872;28;20242;-73
2024/03/15 08:06:00;;;;;;;;;;;;;;;7.59;67.39;94646.75;4199620;28;19924;-72
2024/03/15 08:08:05;;;;;;;;;;;;;;;7.54;67.08;94655.94;4208666;28;19920;-72
2024/03/15 08:10:10;;;;;;;;;;;;;;;7.38;67.15;94651.34;4199351;28;20119;-71
2024/03/15 08:12:14;;;;;;;;;;;;;;;7.18;67.83;94653.13;4195859;28;20316;-73
2024/03/15 08:14:16;;;;;;;;;;;;;;;7.18;67.54;94664.41;4194238;28;19931;-72
2024/03/15 08:16:18;;;;;;;;;;;;;;;7.26;67.79;94649.84;4199839;28;20554;-71
2024/03/15 08:18:20;;;;;;;;;;;;;;;7.30;67.38;94654.63;4205842;28;19942;-70
2024/03/15 08:20:22;;;;;;;;;;;;;;;7.44;66.97;94653.34;4190916;28;19920;-71
2024/03/15 08:22:24;;;;;;;;;;;;;;;7.46;66.78;94655.84;4209263;28;19993;-72
2024/03/15 08:24:27;;;;;;;;;;;;;;;7.47;66.25;94657.50;4205267;28;19927;-70
2024/03/15 08:26:29;;;;;;;;;;;;;;;7.45;66.59;94656.81;4207257;28;19963;-72
2024/03/15 08:28:31;;;;;;;;;;;;;;;7.37;66.52;94653.09;4184163;28;19921;-72
2024/03/15 08:30:33;;;;;;;;;;;;;;;7.31;67.00;94656.28;4178418;28;19921;-69
2024/03/15 08:32:36;;;;;;;;;;;;;;;7.27;67.17;94649.72;4209744;28;20351;-73
2024/03/15 08:34:38;;;;;;;;;;;;;;;7.39;67.13;94650.38;4208451;28;19924;-73
2024/03/15 08:36:40;;;;;;;;;;;;;;;7.42;66.84;94655.31;4210678;28;19920;-72
2024/03/15 08:38:42;;;;;;;;;;;;;;;7.39;66.88;94656.38;4222051;28;19919;-71
2024/03/15 08:40:43;;;;;;;;;;;;;;;7.34;67.57;94655.19;4203542;28;19928;-73
2024/03/15 08:42:45;;;;;;;;;;;;;;;7.39;67.47;94651.19;4214257;28;19920;-70
2024/03/15 08:44:47;;;;;;;;;;;;;;;7.34;67.50;94650.78;4208218;28;19920;-70
2024/03/15 08:46:49;;;;;;;;;;;;;;;7.23;67.76;94650.94;4208612;28;19924;-73
2024/03/15 08:48:51;;;;;;;;;;;;;;;7.23;68.26;94650.94;4211548;28;19996;-70
2024/03/15 08:50:53;;;;;;;;;;;;;;;7.13;67.97;94650.13;4204897;28;20015;-71
2024/03/15 08:52:55;;;;;;;;;;;;;;;7.22;67.94;94648.47;4209700;28;19963;-70
2024/03/15 08:54:57;;;;;;;;;;;;;;;7.36;68.06;94641.03;4209202;28;20149;-71
2024/03/15 08:57:02;;;;;;;;;;;;;;;7.46;67.62;94643.63;4212289;28;20342;-72
2024/03/15 08:59:05;;;;;;;;;;;;;;;7.49;67.45;94637.31;4193203;28;20395;-71
2024/03/15 09:01:06;;;;;;;;;;;;;;;7.24;67.95;94636.94;4212362;28;20244;-73
2024/03/15 09:03:09;;;;;;;;;;;;;;;7.26;68.60;94642.84;4210517;28;19935;-71
2024/03/15 09:05:12;;;;;;;;;;;;;;;7.36;67.94;94645.44;4211021;28;19932;-72
2024/03/15 09:07:14;;;;;;;;;;;;;;;7.46;67.88;94645.41;4208720;28;19920;-70
2024/03/15 09:09:21;;;;;;;;;;;;;;;7.42;68.17;94646.66;4210650;28;19934;-72
2024/03/15 09:11:25;;;;;;;;;;;;;;;7.47;68.29;94647.06;4207486;28;19982;-70
2024/03/15 09:13:27;;;;;;;;;;;;;;;7.65;67.39;94645.34;4209815;28;19923;-72
2024/03/15 09:15:33;;;;;;;;;;;;;;;7.64;67.07;94643.72;4207773;28;19931;-72
2024/03/15 09:17:36;;;;;;;;;;;;;;;7.68;66.71;94645.09;4211900;28;19927;-72
2024/03/15 09:19:38;;;;;;;;;;;;;;;7.55;67.30;94642.78;4206368;28;19924;-72
2024/03/15 09:21:40;;;;;;;;;;;;;;;7.45;67.34;94638.56;4194010;28;19943;-71
2024/03/15 09:23:43;;;;;;;;;;;;;;;7.54;67.85;94637.72;4211141;28;20027;-72
2024/03/15 09:25:44;;;;;;;;;;;;;;;7.51;67.62;94638.81;4182843;28;19986;-71
2024/03/15 09:27:48;;;;;;;;;;;;;;;7.51;67.88;94635.41;4217688;28;19926;-73
2024/03/15 09:29:52;;;;;;;;;;;;;;;7.45;67.25;94646.38;4209760;28;19920;-71
2024/03/15 09:31:56;;;;;;;;;;;;;;;7.54;67.68;94635.09;4199680;28;20381;-71
2024/03/15 09:34:14;;;;;;;;;;;;;;;7.70;66.99;94637.94;4199581;28;19924;-71
2024/03/15 09:36:17;;;;;;;;;;;;;;;7.87;66.66;94635.53;4210206;28;19920;-72
2024/03/15 09:38:21;;;;;;;;;;;;;;;8.02;65.79;94636.69;4192205;28;19923;-72
2024/03/15 09:40:25;;;;;;;;;;;;;;;8.13;66.72;94633.91;4210333;28;19920;-71
2024/03/15 09:42:28;;;;;;;;;;;;;;;8.41;65.93;94631.31;4197308;28;20484;-70
2024/03/15 09:44:33;;;;;;;;;;;;;;;8.56;64.34;94623.75;4192765;28;19939;-71
2024/03/15 09:46:37;;;;;;;;;;;;;;;8.76;64.67;94635.72;4212106;28;19920;-73
2024/03/15 09:48:39;;;;;;;;;;;;;;;9.00;64.34;94627.25;4212329;28;19935;-73
2024/03/15 09:50:41;;;;;;;;;;;;;;;9.17;63.70;94628.22;4178920;28;20400;-70
2024/03/15 09:52:43;;;;;;;;;;;;;;;9.34;63.82;94630.94;4206028;28;19943;-72
2024/03/15 09:54:47;;;;;;;;;;;;;;;9.49;63.37;94620.75;4199080;28;20367;-70
2024/03/15 09:56:50;;;;;;;;;;;;;;;9.61;62.36;94609.88;4208495;28;19926;-72
2024/03/15 09:58:52;;;;;;;;;;;;;;;9.74;62.09;94609.44;4188947;28;20282;-70
2024/03/15 10:00:54;;;;;;;;;;;;;;;9.86;61.58;94609.19;4190666;28;20370;-74
2024/03/15 10:02:56;;;;;;;;;;;;;;;9.96;61.70;94618.53;4191964;28;19921;-73
2024/03/15 10:05:00;;;;;;;;;;;;;;;9.99;61.29;94612.97;4179782;28;19929;-72
2024/03/15 10:07:04;;;;;;;;;;;;;;;9.97;60.83;94612.31;4199580;28;20020;-71
2024/03/15 10:09:12;;;;;;;;;;;;;;;10.03;61.11;94609.06;4197708;28;19920;-71
2024/03/15 10:11:15;;;;;;;;;;;;;;;10.15;61.10;94612.25;4186661;28;20364;-72
2024/03/15 10:13:17;;;;;;;;;;;;;;;10.30;60.46;94604.59;4208245;28;19960;-71
2024/03/15 10:15:20;;;;;;;;;;;;;;;10.40;59.51;94604.47;4192618;28;19967;-71
2024/03/15 10:17:21;;;;;;;;;;;;;;;10.50;59.00;94602.53;4214780;28;19920;-73
2024/03/15 10:19:25;;;;;;;;;;;;;;;10.62;58.87;94609.09;4210193;28;20014;-71
2024/03/15 10:21:27;;;;;;;;;;;;;;;10.72;58.96;94598.47;4208441;28;19920;-71
2024/03/15 10:23:29;;;;;;;;;;;;;;;10.80;58.92;94601.09;4201609;28;19958;-70
2024/03/15 10:25:34;;;;;;;;;;;;;;;10.91;58.26;94602.59;4200827;28;20028;-72
2024/03/15 10:27:37;;;;;;;;;;;;;;;11.05;58.17;94594.06;4196499;28;20003;-72
2024/03/15 10:29:39;;;;;;;;;;;;;;;11.13;57.87;94595.84;4198548;28;19920;-69
2024/03/15 10:31:41;;;;;;;;;;;;;;;11.20;57.82;94594.22;4210183;28;20471;-71
2024/03/15 10:33:43;;;;;;;;;;;;;;;11.00;57.31;94591.13;4209575;28;19920;-70
2024/03/15 10:35:45;;;;;;;;;;;;;;;10.75;57.64;94598.13;4219362;28;19954;-69
2024/03/15 10:37:50;;;;;;;;;;;;;;;10.80;58.13;94601.09;4212763;28;20019;-69
2024/03/15 10:39:52;;;;;;;;;;;;;;;10.87;57.70;94596.03;4210468;28;19923;-70
2024/03/15 10:41:53;;;;;;;;;;;;;;;10.48;57.15;94599.25;4209771;28;19996;-71
2024/03/15 10:43:57;;;;;;;;;;;;;;;10.57;57.69;94597.47;4208266;28;20347;-72
2024/03/15 10:45:59;;;;;;;;;;;;;;;10.58;57.43;94591.25;4203822;28;20007;-71
2024/03/15 10:48:01;;;;;;;;;;;;;;;10.46;58.13;94595.97;4200632;28;19967;-69
2024/03/15 10:50:03;;;;;;;;;;;;;;;10.61;58.07;94593.56;4193535;28;20349;-70